• Join FlightAware (Why Join?)
  • Login
  • US Flag 
07:46PM EDT


 

Airport Tracker/Info


-or-


 

Live Flight TrackerFlight Track Log ✈ JIA2396 ✈ 31-Jul-2013 ✈ KDCA - KHPN

Flight Track Log - Related Links

Times and Time Zones

All times are in EDT time to prevent confusion due to time zone crossing. See the JIA2396 flight status page for this flight to view local times or setup timezone preferences in your user account.

Time Position Orientation Groundspeed Altitude Reporting Facility
EDT Latitude Longitude Course Direction KTS MPH feet Rate Location/Type
10:50PM 38.8000 -77.0333 63° Northeast 162 186 1,800  Level Potomac TRACON
10:51PM 38.7500 -77.0167 165° South 239 275 4,200 2,340 Climbing Potomac TRACON
10:52PM 38.9769 -76.6695 67° East  Level FlightAware Approximate
10:53PM 39.0212 -76.5392 62° Northeast  Level FlightAware Approximate
10:53PM 38.8000 -76.9047 60° Northeast 243 280 8,700  Level Washington Center
10:54PM 39.0734 -76.4138 62° Northeast  Level FlightAware Approximate
10:54PM 38.8692 -76.8475 33° Northeast 263 303 11,100  Level Washington Center
10:55PM 39.1222 -76.2862 63° Northeast  Level FlightAware Approximate
10:55PM 38.9386 -76.7900 33° Northeast 283 326 13,800  Level Washington Center
10:56PM 38.9917 -76.7081 50° Northeast 288 331 15,100 600 Climbing Washington Center
10:57PM 39.0258 -76.6017 68° East 295 339 15,000 780 Descending Washington Center
10:58PM 39.0581 -76.5006 68° East 301 346 16,700 960 Climbing Washington Center
10:59PM 39.0942 -76.3939 66° East 311 358 17,000 180 Climbing Washington Center
11:00PM 39.1303 -76.2872 66° East 316 364 17,100 780 Climbing Washington Center
11:01PM 39.1536 -76.1750 75° East 316 364 18,600 1,500 Climbing Washington Center
11:02PM 39.1731 -76.0547 78° East 321 369 20,200 1,200 Climbing Washington Center
11:03PM 39.1858 -75.9317 82° East 331 381 21,000 420 Climbing Washington Center
11:04PM 39.2361 -75.8247 59° Northeast 342 394 21,100 600 Climbing Washington Center
11:05PM 39.3072 -75.7336 45° Northeast 342 394 22,200 960 Climbing Washington Center
11:06PM 39.3781 -75.6400 46° Northeast 347 399 23,000 360 Climbing Washington Center
11:07PM 39.4511 -75.5486 44° Northeast 352 405 23,000  Level Washington Center
11:08PM 39.5239 -75.4544 45° Northeast 358 412 23,000  Level Washington Center
11:09PM 39.5967 -75.3600 45° Northeast 358 412 23,000  Level Washington Center
11:11PM 39.6769 -75.1161 67° East 369 425 23,000  Level New York Center
11:12PM 39.7053 -74.9694 76° East 369 425 23,000  Level New York Center
11:13PM 39.7328 -74.8361 75° East 375 432 23,000  Level New York Center
11:14PM 39.7764 -74.7197 64° Northeast 360 414 23,000  Level New York Center
11:15PM 39.8278 -74.6144 58° Northeast 365 420 23,000  Level New York Center
11:16PM 39.8861 -74.4878 59° Northeast 370 426 23,000  Level New York Center
11:17PM 39.9442 -74.3692 57° Northeast 377 434 23,000  Level New York Center
11:18PM 39.9975 -74.2528 59° Northeast 372 428 23,000  Level New York Center
11:19PM 40.0511 -74.1361 59° Northeast 372 428 23,000 -420 Level New York Center
11:20PM 40.1419 -73.9383 59° Northeast 396 456 21,900 -960 Descending Boston Center
11:21PM 40.1914 -73.8253 60° Northeast 386 444 20,500 -1,380 Descending Boston Center
11:22PM 40.2489 -73.7206 54° Northeast 366 421 19,200 -1,380 Descending Boston Center
11:24PM 40.2978 -73.6100 60° Northeast 354 407 17,800 -1,140 Descending Boston Center
11:25PM 40.3469 -73.5075 58° Northeast 344 396 17,000 -480 Descending Boston Center
11:25PM 40.4161 -73.4431 35° Northeast 308 354 16,900  Descending Boston Center
11:27PM 40.5333 -73.4000 16° North 351 404 17,000 -300 Climbing New York TRACON
11:28PM 40.6167 -73.3667 17° North 346 398 16,300 -900 Descending New York TRACON
11:29PM 40.7167 -73.3333 14° North 320 368 15,200 -660 Descending New York TRACON
11:30PM 40.7833 -73.3000 21° North 313 360 15,000 -900 Descending New York TRACON
11:31PM 40.8500 -73.2000 49° Northeast 316 364 13,500 -1,440 Descending New York TRACON
11:32PM 40.9000 -73.0833 60° Northeast 312 359 11,900 -1,500 Descending New York TRACON
11:33PM 40.9333 -73.0000 62° Northeast 305 351 10,500 -1,740 Descending New York TRACON
11:34PM 41.0167 -72.9667 17° North 307 353 8,600 -1,860 Descending New York TRACON
11:35PM 41.0500 -73.0500 298° West 287 330 6,800 -1,800 Descending New York TRACON
11:36PM 41.0833 -73.1333 298° West 271 312 5,000 -1,440 Descending New York TRACON
11:37PM 41.1000 -73.2167 285° West 255 293 4,000 -480 Descending New York TRACON
11:38PM 41.1333 -73.3000 298° West 214 246 4,000  Level New York TRACON
11:39PM 41.1500 -73.3833 285° West 218 251 4,000 -540 Level New York TRACON
11:40PM 41.1667 -73.4500 288° West 225 259 3,000 -600 Descending New York TRACON
11:41PM 41.1833 -73.5167 288° West 196 226 2,900 -360 Descending New York TRACON
11:42PM 41.1667 -73.6000 255° West 203 234 2,300 -480 Descending New York TRACON
11:43PM 41.1500 -73.6667 252° West 197 227 2,000 -180 Descending New York TRACON
11:44PM 41.1500 -73.7333 270° West 164 189 2,000 -300 Level New York TRACON
11:45PM 41.1167 -73.7500 201° Southwest 141 162 1,400 -720 Descending New York TRACON
11:46PM 41.0833 -73.7167 143° Southeast 142 163 700 -780 Descending New York TRACON